Time;durP1;ratioP1;P1;durP2;ratioP2;P2;SDS_P1;SDS_P2;PMS_P1;PMS_P2;Temp;Humidity;BMP_temperature;BMP_pressure;BME280_temperature;BME280_humidity;BME280_pressure;Samples;Min_cycle;Max_cycle;Signal;HPM_P1;HPM_P2
2021/04/17 00:01:19;;;;;;;9.10;4.97;;;7.20;99.90;;;;;;5032545;28;20222;-65
2021/04/17 00:03:45;;;;;;;4.90;4.40;;;7.30;99.90;;;;;;5044255;28;20225;-64
2021/04/17 00:06:11;;;;;;;10.07;5.27;;;7.30;99.90;;;;;;5045364;28;20176;-65
2021/04/17 00:08:37;;;;;;;6.43;5.07;;;7.20;99.90;;;;;;5032710;28;20724;-64
2021/04/17 00:11:03;;;;;;;7.47;4.90;;;7.30;99.90;;;;;;5037660;28;20182;-65
2021/04/17 00:13:28;;;;;;;7.10;5.03;;;7.30;99.90;;;;;;5052484;28;20181;-65
2021/04/17 00:15:54;;;;;;;9.43;4.70;;;7.30;99.90;;;;;;5048726;28;20652;-65
2021/04/17 00:18:20;;;;;;;7.07;4.63;;;7.40;99.90;;;;;;5032406;28;20692;-64
2021/04/17 00:20:46;;;;;;;6.37;4.50;;;7.30;99.90;;;;;;5033632;28;20175;-64
2021/04/17 00:23:11;;;;;;;7.27;4.43;;;7.30;99.90;;;;;;5052354;28;20249;-64
2021/04/17 00:25:37;;;;;;;6.17;4.70;;;7.30;99.90;;;;;;5052004;28;20167;-65
2021/04/17 00:28:03;;;;;;;9.27;5.00;;;7.30;99.90;;;;;;5032524;28;20711;-65
2021/04/17 00:30:28;;;;;;;8.20;4.87;;;7.30;99.90;;;;;;5032067;28;20179;-64
2021/04/17 00:32:54;;;;;;;11.37;5.87;;;7.40;99.90;;;;;;5033190;28;20245;-65
2021/04/17 00:35:20;;;;;;;6.23;4.77;;;7.30;99.90;;;;;;5032319;28;20175;-64
2021/04/17 00:37:45;;;;;;;8.40;5.23;;;7.20;99.90;;;;;;5031160;28;20656;-64
2021/04/17 00:40:11;;;;;;;7.67;4.97;;;7.20;99.90;;;;;;5032024;28;20191;-64
2021/04/17 00:42:37;;;;;;;8.03;5.43;;;7.10;99.90;;;;;;5046196;28;20198;-65
2021/04/17 00:45:05;;;;;;;7.80;5.23;;;7.10;99.90;;;;;;5051939;28;20628;-64
2021/04/17 00:47:31;;;;;;;8.13;5.03;;;7.10;99.90;;;;;;5039065;28;20641;-64
2021/04/17 00:49:56;;;;;;;7.60;5.90;;;7.00;99.90;;;;;;5031568;28;20195;-64
2021/04/17 00:52:22;;;;;;;8.03;5.43;;;7.00;99.90;;;;;;5042296;28;20182;-64
2021/04/17 00:54:48;;;;;;;6.67;4.67;;;6.90;99.90;;;;;;5052044;28;20182;-65
2021/04/17 00:57:13;;;;;;;8.77;4.80;;;6.80;99.90;;;;;;5042621;28;20211;-65
2021/04/17 00:59:39;;;;;;;10.47;5.57;;;6.70;99.90;;;;;;5035148;28;20562;-64
2021/04/17 01:02:05;;;;;;;12.37;5.60;;;6.60;99.90;;;;;;5051428;28;20167;-65
2021/04/17 01:04:34;;;;;;;16.87;6.17;;;6.50;99.90;;;;;;5049609;28;20198;-65
2021/04/17 01:07:18;;;;;;;10.23;5.30;;;6.40;99.90;;;;;;5031564;28;20175;-65
2021/04/17 01:10:00;;;;;;;8.80;6.57;;;6.40;99.90;;;;;;5032346;28;20203;-65
2021/04/17 01:12:30;;;;;;;7.53;5.83;;;6.20;99.90;;;;;;5031869;28;20175;-63
2021/04/17 01:14:56;;;;;;;6.40;5.20;;;6.10;99.90;;;;;;5035464;28;20178;-63
2021/04/17 01:17:23;;;;;;;6.30;4.80;;;6.10;99.90;;;;;;5051446;28;20195;-64
2021/04/17 01:20:16;;;;;;;8.47;5.60;;;6.00;99.90;;;;;;5048600;28;20264;-64
2021/04/17 01:22:44;;;;;;;13.20;5.83;;;6.00;99.90;;;;;;5031553;28;20214;-64
2021/04/17 01:25:17;;;;;;;8.33;5.30;;;5.90;99.90;;;;;;5047950;28;20197;-64
2021/04/17 01:27:42;;;;;;;11.77;7.00;;;5.90;99.90;;;;;;5047766;28;20262;-64
2021/04/17 01:30:18;;;;;;;7.97;5.47;;;5.80;99.90;;;;;;5031136;28;20278;-64
2021/04/17 01:32:45;;;;;;;8.67;5.70;;;5.70;99.90;;;;;;5034433;28;20265;-63
2021/04/17 01:35:13;;;;;;;8.70;5.33;;;5.60;99.90;;;;;;5051384;28;20217;-65
2021/04/17 01:38:08;;;;;;;10.57;6.80;;;5.60;99.90;;;;;;5049045;28;20217;-64
2021/04/17 01:40:36;;;;;;;8.00;5.70;;;5.50;99.90;;;;;;5013980;28;20190;-64
2021/04/17 01:43:01;;;;;;;9.13;5.83;;;5.50;99.90;;;;;;5035186;28;20202;-64
2021/04/17 01:45:29;;;;;;;9.07;5.60;;;5.40;99.90;;;;;;5051157;28;20167;-65
2021/04/17 01:47:58;;;;;;;9.67;6.30;;;5.40;99.90;;;;;;5045547;28;20646;-64
2021/04/17 01:50:26;;;;;;;8.63;5.73;;;5.40;99.90;;;;;;5031254;28;20306;-64
2021/04/17 01:52:54;;;;;;;12.37;6.27;;;5.30;99.90;;;;;;5035061;28;20171;-64
2021/04/17 01:55:21;;;;;;;11.53;5.40;;;5.20;99.90;;;;;;5050878;28;20174;-65
2021/04/17 01:57:49;;;;;;;10.60;5.87;;;5.20;99.90;;;;;;5030988;28;20231;-65
2021/04/17 02:00:16;;;;;;;7.77;6.03;;;5.20;99.90;;;;;;5030853;28;20191;-64
2021/04/17 02:02:42;;;;;;;10.00;6.13;;;5.20;99.90;;;;;;5049597;28;20228;-64
2021/04/17 02:05:08;;;;;;;10.43;6.23;;;5.10;99.90;;;;;;5053570;28;20254;-64
2021/04/17 02:07:33;;;;;;;11.63;6.13;;;5.10;99.90;;;;;;5037894;28;20180;-64
2021/04/17 02:09:59;;;;;;;7.23;5.60;;;5.00;99.90;;;;;;5034686;28;20564;-64
2021/04/17 02:12:25;;;;;;;7.93;5.80;;;5.00;99.90;;;;;;5049896;28;20232;-64
2021/04/17 02:14:50;;;;;;;6.80;5.60;;;5.00;99.90;;;;;;5054799;28;20179;-64
2021/04/17 02:17:28;;;;;;;13.17;6.83;;;4.90;99.90;;;;;;5048546;28;20202;-64
2021/04/17 02:20:13;;;;;;;8.03;5.40;;;4.90;99.90;;;;;;5054359;28;20692;-64
2021/04/17 02:22:42;;;;;;;9.40;5.63;;;4.90;99.90;;;;;;5053055;28;20583;-63
2021/04/17 02:25:09;;;;;;;8.03;6.03;;;4.90;99.90;;;;;;5054599;28;20175;-63
2021/04/17 02:27:35;;;;;;;8.83;6.03;;;4.80;99.90;;;;;;5039993;28;20209;-64
2021/04/17 02:30:01;;;;;;;9.37;6.17;;;4.70;99.90;;;;;;5034150;28;20191;-64
2021/04/17 02:32:26;;;;;;;8.10;5.73;;;4.70;99.90;;;;;;5046824;28;20190;-64
2021/04/17 02:34:53;;;;;;;9.40;5.80;;;4.70;99.90;;;;;;5054409;28;20202;-64
2021/04/17 02:37:19;;;;;;;8.70;5.83;;;4.70;99.90;;;;;;5043619;28;20211;-65
2021/04/17 02:39:44;;;;;;;10.63;6.07;;;4.70;99.90;;;;;;5034049;28;20198;-65
2021/04/17 02:42:11;;;;;;;8.13;6.33;;;4.50;99.90;;;;;;5042779;28;20178;-64
2021/04/17 02:44:37;;;;;;;7.33;5.93;;;4.50;99.90;;;;;;5054366;28;20173;-63
2021/04/17 02:47:04;;;;;;;7.97;5.93;;;4.50;99.90;;;;;;5046742;28;20179;-64
2021/04/17 02:49:30;;;;;;;10.50;5.87;;;4.50;99.90;;;;;;5035691;28;20281;-64
2021/04/17 02:51:55;;;;;;;8.60;5.50;;;4.40;99.90;;;;;;5053817;28;20683;-64
2021/04/17 02:54:21;;;;;;;8.43;5.77;;;4.40;99.90;;;;;;5053953;28;20170;-64
2021/04/17 02:56:47;;;;;;;8.77;5.53;;;4.50;99.90;;;;;;5034025;28;20702;-64
2021/04/17 02:59:13;;;;;;;13.27;6.50;;;4.40;99.90;;;;;;5034005;28;20199;-64
2021/04/17 03:01:39;;;;;;;8.53;5.70;;;4.40;99.90;;;;;;5038609;28;20700;-65
2021/04/17 03:04:05;;;;;;;9.43;5.70;;;4.40;99.90;;;;;;5033874;28;20657;-64
2021/04/17 03:06:31;;;;;;;10.50;5.77;;;4.50;99.90;;;;;;5050297;28;20175;-65
2021/04/17 03:08:56;;;;;;;9.53;5.70;;;4.50;99.90;;;;;;5053695;28;20194;-65
2021/04/17 03:11:22;;;;;;;9.53;6.37;;;4.50;99.90;;;;;;5038499;28;20188;-65
2021/04/17 03:13:48;;;;;;;12.27;6.57;;;4.40;99.90;;;;;;5033774;28;20381;-65
2021/04/17 03:16:14;;;;;;;11.93;6.10;;;4.30;99.90;;;;;;5033768;28;20183;-64
2021/04/17 03:18:39;;;;;;;11.33;6.20;;;4.30;99.90;;;;;;5034071;28;20207;-66
2021/04/17 03:21:05;;;;;;;9.10;5.83;;;4.20;99.90;;;;;;5044137;28;20289;-66
2021/04/17 03:23:31;;;;;;;9.30;6.30;;;4.20;99.90;;;;;;5048061;28;20176;-65
2021/04/17 03:25:56;;;;;;;8.63;6.13;;;4.10;99.90;;;;;;5033596;28;20171;-65
2021/04/17 03:28:22;;;;;;;12.70;6.20;;;4.00;99.90;;;;;;5036415;28;20202;-65
2021/04/17 03:30:47;;;;;;;9.43;6.40;;;4.00;99.90;;;;;;5053203;28;20177;-64
2021/04/17 03:33:13;;;;;;;9.07;6.40;;;3.90;99.90;;;;;;5051853;28;20652;-66
2021/04/17 03:35:39;;;;;;;8.63;5.93;;;3.90;99.90;;;;;;5033281;28;20174;-65
2021/04/17 03:38:04;;;;;;;9.13;6.10;;;3.90;99.90;;;;;;5048062;28;20249;-65
2021/04/17 03:40:31;;;;;;;10.93;5.93;;;3.80;99.90;;;;;;5053037;28;20261;-65
2021/04/17 03:42:57;;;;;;;10.47;6.87;;;3.80;99.90;;;;;;5039610;28;20176;-66
2021/04/17 03:45:23;;;;;;;9.77;6.53;;;3.70;99.90;;;;;;5033279;28;20164;-66
2021/04/17 03:47:49;;;;;;;8.07;5.83;;;3.70;99.90;;;;;;5044707;28;20186;-65
2021/04/17 03:50:16;;;;;;;9.30;5.87;;;3.60;99.90;;;;;;5053070;28;20245;-65
2021/04/17 03:52:41;;;;;;;10.43;6.90;;;3.60;99.90;;;;;;5042652;28;20649;-66
2021/04/17 03:55:10;;;;;;;15.93;6.73;;;3.60;99.90;;;;;;5032988;28;20187;-66
2021/04/17 03:57:37;;;;;;;15.07;7.40;;;3.50;99.90;;;;;;5041562;28;20199;-66
2021/04/17 04:00:05;;;;;;;10.83;6.57;;;3.50;99.90;;;;;;5052461;28;20194;-66
2021/04/17 04:02:32;;;;;;;9.33;6.83;;;3.40;99.90;;;;;;5044994;28;20184;-66
2021/04/17 04:04:57;;;;;;;12.27;6.57;;;3.40;99.90;;;;;;5032765;28;20209;-66
2021/04/17 04:07:23;;;;;;;10.43;6.80;;;3.40;99.90;;;;;;5038620;28;20704;-66
2021/04/17 04:09:48;;;;;;;10.60;6.70;;;3.30;99.90;;;;;;5048765;28;20199;-66
2021/04/17 04:12:14;;;;;;;8.17;5.67;;;3.30;99.90;;;;;;5032647;28;20176;-66
2021/04/17 04:14:40;;;;;;;7.60;5.87;;;3.30;99.90;;;;;;5033904;28;20172;-66
2021/04/17 04:17:06;;;;;;;10.70;6.67;;;3.40;99.90;;;;;;5052879;28;20198;-65
2021/04/17 04:19:32;;;;;;;7.93;5.70;;;3.40;99.90;;;;;;5052185;28;20206;-64
2021/04/17 04:21:57;;;;;;;8.40;6.23;;;3.40;99.90;;;;;;5032387;28;20293;-65
2021/04/17 04:24:23;;;;;;;9.70;6.17;;;3.30;99.90;;;;;;5032592;28;20191;-66
2021/04/17 04:26:49;;;;;;;9.07;6.07;;;3.30;99.90;;;;;;5049739;28;20175;-66
2021/04/17 04:29:14;;;;;;;8.40;5.87;;;3.30;99.90;;;;;;5052231;28;20205;-66
2021/04/17 04:31:40;;;;;;;9.20;5.57;;;3.30;99.90;;;;;;5035450;28;20512;-65
2021/04/17 04:34:06;;;;;;;10.90;7.07;;;3.30;99.90;;;;;;5032234;28;20175;-65
2021/04/17 04:36:31;;;;;;;8.80;6.00;;;3.30;99.90;;;;;;5050501;28;20668;-64
2021/04/17 04:38:57;;;;;;;11.03;6.93;;;3.30;99.90;;;;;;5052094;28;20218;-66
2021/04/17 04:41:23;;;;;;;10.67;6.77;;;3.30;99.90;;;;;;5035107;28;20206;-66
2021/04/17 04:43:48;;;;;;;9.70;6.67;;;3.30;99.90;;;;;;5041773;28;20653;-66
2021/04/17 04:46:14;;;;;;;9.33;6.13;;;3.30;99.90;;;;;;5034149;28;20649;-66
2021/04/17 04:48:40;;;;;;;11.43;6.37;;;3.30;99.90;;;;;;5043450;28;20202;-65
2021/04/17 04:51:05;;;;;;;10.03;6.67;;;3.30;99.90;;;;;;5031720;28;20183;-66
2021/04/17 04:53:31;;;;;;;10.80;6.73;;;3.30;99.90;;;;;;5038231;28;20175;-66
2021/04/17 04:55:57;;;;;;;11.40;7.77;;;3.30;99.90;;;;;;5051739;28;20186;-66
2021/04/17 04:58:22;;;;;;;13.97;8.43;;;3.40;99.90;;;;;;5028828;28;20281;-66
2021/04/17 05:00:48;;;;;;;11.77;7.13;;;3.40;99.90;;;;;;5031564;28;20175;-66
2021/04/17 05:03:14;;;;;;;13.60;9.87;;;3.30;99.90;;;;;;5034424;28;20183;-66
2021/04/17 05:05:39;;;;;;;13.23;7.90;;;3.40;99.90;;;;;;5051572;28;20255;-66
2021/04/17 05:08:05;;;;;;;13.33;8.27;;;3.40;99.90;;;;;;5050231;28;20633;-66
2021/04/17 05:10:31;;;;;;;12.47;7.13;;;3.40;99.90;;;;;;5031462;28;20633;-66
2021/04/17 05:12:56;;;;;;;16.60;6.67;;;3.40;99.90;;;;;;5031640;28;20176;-65
2021/04/17 05:15:22;;;;;;;10.50;7.13;;;3.50;99.90;;;;;;5050947;28;20222;-66
2021/04/17 05:17:47;;;;;;;15.20;10.57;;;3.50;99.90;;;;;;5051282;28;20214;-66
2021/04/17 05:20:13;;;;;;;12.80;6.53;;;3.60;99.90;;;;;;5033242;28;20211;-66
2021/04/17 05:22:39;;;;;;;10.57;5.97;;;3.60;99.90;;;;;;5037267;28;20184;-65
2021/04/17 05:25:05;;;;;;;9.63;5.60;;;3.70;99.90;;;;;;5051922;28;20199;-65
2021/04/17 05:27:31;;;;;;;10.83;6.63;;;3.70;99.90;;;;;;5046945;28;20183;-65
2021/04/17 05:29:56;;;;;;;8.53;6.93;;;3.70;99.90;;;;;;5030932;28;20195;-66
2021/04/17 05:32:22;;;;;;;11.87;6.70;;;3.70;99.90;;;;;;5033575;28;20236;-66
2021/04/17 05:34:48;;;;;;;9.17;6.27;;;3.80;99.90;;;;;;5051476;28;20597;-66
2021/04/17 05:37:14;;;;;;;10.57;5.80;;;3.90;99.90;;;;;;5050197;28;20206;-66
2021/04/17 05:39:40;;;;;;;10.47;6.13;;;3.90;99.90;;;;;;5033098;28;20294;-66
2021/04/17 05:42:06;;;;;;;15.77;7.83;;;4.00;99.90;;;;;;5042382;28;20692;-65
2021/04/17 05:44:31;;;;;;;12.40;7.70;;;4.10;99.90;;;;;;5055443;28;20171;-65
2021/04/17 05:46:57;;;;;;;12.97;7.80;;;4.30;99.90;;;;;;5042272;28;20637;-66
2021/04/17 05:49:23;;;;;;;9.67;6.17;;;4.30;99.90;;;;;;5035864;28;20274;-66
2021/04/17 05:51:49;;;;;;;10.07;5.57;;;4.50;99.90;;;;;;5035821;28;20639;-66
2021/04/17 05:54:14;;;;;;;9.23;5.70;;;4.60;99.90;;;;;;5035307;28;20171;-65
2021/04/17 05:56:40;;;;;;;9.90;6.00;;;4.70;99.90;;;;;;5040378;28;20175;-65
2021/04/17 05:59:06;;;;;;;7.73;5.43;;;4.80;99.90;;;;;;5055121;28;20589;-65
2021/04/17 06:01:32;;;;;;;10.43;5.70;;;4.90;99.90;;;;;;5051176;28;20680;-64
2021/04/17 06:03:58;;;;;;;8.53;5.27;;;5.10;99.90;;;;;;5034875;28;20562;-65
2021/04/17 06:06:23;;;;;;;7.17;4.97;;;5.30;99.90;;;;;;5036713;28;20230;-66
2021/04/17 06:08:49;;;;;;;7.73;5.03;;;5.70;99.90;;;;;;5055087;28;20199;-66
2021/04/17 06:11:15;;;;;;;10.23;5.73;;;6.00;99.90;;;;;;5042003;28;20206;-66
2021/04/17 06:13:41;;;;;;;13.13;5.80;;;6.30;99.90;;;;;;5035410;28;20659;-66
2021/04/17 06:16:08;;;;;;;9.07;5.93;;;6.40;99.90;;;;;;5049330;28;20905;-66
2021/04/17 06:18:34;;;;;;;8.67;5.03;;;6.60;99.90;;;;;;5054988;28;20206;-66
2021/04/17 06:21:00;;;;;;;8.40;5.07;;;6.80;99.90;;;;;;5041417;28;20175;-65
2021/04/17 06:23:26;;;;;;;7.03;5.77;;;7.20;99.90;;;;;;5035530;28;20226;-65
2021/04/17 06:25:51;;;;;;;7.13;5.10;;;7.20;99.90;;;;;;5046271;28;20206;-66
2021/04/17 06:28:18;;;;;;;8.77;5.27;;;7.10;99.90;;;;;;5055420;28;20175;-66
2021/04/17 06:30:44;;;;;;;10.80;5.73;;;7.00;99.90;;;;;;5045406;28;20329;-65
2021/04/17 06:33:09;;;;;;;8.50;4.87;;;7.00;99.90;;;;;;5017224;28;20176;-65
2021/04/17 06:35:36;;;;;;;9.37;5.53;;;7.10;99.90;;;;;;5042564;28;20182;-64
2021/04/17 06:38:03;;;;;;;10.33;5.40;;;7.50;99.90;;;;;;5029155;28;20203;-66
2021/04/17 06:40:28;;;;;;;8.30;5.33;;;7.80;99.90;;;;;;5034536;28;20190;-66
2021/04/17 06:42:58;;;;;;;9.13;4.60;;;8.20;99.90;;;;;;5035317;28;20551;-66
2021/04/17 06:45:24;;;;;;;9.07;5.20;;;8.60;99.90;;;;;;5034410;28;20171;-65
2021/04/17 06:47:51;;;;;;;7.90;4.50;;;9.00;99.90;;;;;;5036875;28;20202;-66
2021/04/17 06:50:18;;;;;;;11.00;5.10;;;9.10;99.90;;;;;;5053725;28;20252;-66
2021/04/17 06:52:44;;;;;;;10.20;4.93;;;9.40;99.90;;;;;;5052852;28;20171;-65
2021/04/17 06:55:11;;;;;;;9.20;5.83;;;9.60;99.90;;;;;;5034077;28;20171;-66
2021/04/17 06:57:38;;;;;;;6.63;5.10;;;9.80;99.90;;;;;;5034109;28;20199;-66
2021/04/17 07:00:06;;;;;;;6.67;4.43;;;9.80;99.90;;;;;;5052986;28;20256;-65
2021/04/17 07:02:32;;;;;;;5.37;4.23;;;10.00;99.90;;;;;;5054084;28;20640;-66
2021/04/17 07:04:58;;;;;;;8.37;5.00;;;10.40;99.90;;;;;;5035325;28;20270;-65
2021/04/17 07:07:24;;;;;;;8.70;4.37;;;10.40;99.90;;;;;;5033891;28;20183;-65
2021/04/17 07:09:52;;;;;;;6.60;4.63;;;10.30;99.90;;;;;;5033692;28;20199;-66
2021/04/17 07:12:17;;;;;;;8.10;4.53;;;10.40;99.90;;;;;;5049413;28;20187;-66
2021/04/17 07:14:48;;;;;;;7.67;4.37;;;10.80;99.90;;;;;;5053552;28;20179;-66
2021/04/17 07:17:15;;;;;;;8.87;5.03;;;10.90;99.90;;;;;;5020733;28;20203;-65
2021/04/17 07:19:56;;;;;;;9.50;4.97;;;11.10;99.90;;;;;;5052098;28;20222;-64
2021/04/17 07:22:25;;;;;;;7.10;4.13;;;11.50;99.90;;;;;;5037985;28;20171;-66
2021/04/17 07:24:55;;;;;;;8.57;4.47;;;11.80;99.90;;;;;;5051293;28;20190;-66
2021/04/17 07:27:47;;;;;;;6.23;3.97;;;12.30;99.90;;;;;;5038795;28;20277;-65
2021/04/17 07:30:15;;;;;;;10.53;5.07;;;12.10;99.90;;;;;;5028939;28;20647;-66
2021/04/17 07:33:09;;;;;;;9.03;4.23;;;12.20;99.90;;;;;;5034291;28;20333;-66
2021/04/17 07:35:43;;;;;;;9.70;4.63;;;12.40;99.90;;;;;;5033132;28;20206;-65
2021/04/17 07:38:15;;;;;;;7.60;4.30;;;12.60;99.90;;;;;;5013210;28;20291;-66
2021/04/17 07:40:43;;;;;;;8.33;4.10;;;12.90;99.90;;;;;;5012790;28;20177;-66
2021/04/17 07:43:09;;;;;;;8.17;4.13;;;12.80;99.90;;;;;;5032942;28;20188;-65
2021/04/17 07:45:40;;;;;;;6.23;4.20;;;12.80;99.90;;;;;;5032947;28;20175;-66
2021/04/17 07:48:29;;;;;;;11.77;4.70;;;12.80;99.90;;;;;;5050894;28;20194;-66
2021/04/17 07:50:55;;;;;;;7.53;4.50;;;12.90;99.90;;;;;;5051957;28;20539;-66
2021/04/17 07:53:41;;;;;;;10.77;4.90;;;13.40;99.90;;;;;;5013298;28;20697;-65
2021/04/17 07:56:25;;;;;;;6.73;4.10;;;13.80;99.90;;;;;;4997770;28;20175;-66
2021/04/17 07:58:55;;;;;;;12.43;4.47;;;14.20;99.90;;;;;;5052586;28;20210;-66
2021/04/17 08:01:21;;;;;;;7.60;4.40;;;14.20;99.90;;;;;;5032526;28;20214;-66
2021/04/17 08:03:48;;;;;;;7.43;3.90;;;14.20;99.90;;;;;;5032628;28;20191;-65
2021/04/17 08:06:15;;;;;;;5.83;3.80;;;14.40;99.90;;;;;;5050927;28;20178;-65
2021/04/17 08:08:41;;;;;;;7.57;4.27;;;14.90;99.90;;;;;;5052603;28;20561;-66
2021/04/17 08:11:09;;;;;;;8.03;4.47;;;15.00;99.90;;;;;;5035270;28;20179;-66
2021/04/17 08:13:39;;;;;;;8.53;4.30;;;15.00;99.90;;;;;;5032649;28;20206;-66
2021/04/17 08:16:07;;;;;;;13.83;4.90;;;14.70;99.90;;;;;;5047898;28;20551;-66
2021/04/17 08:18:35;;;;;;;6.60;3.63;;;14.70;99.90;;;;;;5052492;28;20203;-65
2021/04/17 08:21:07;;;;;;;5.97;3.77;;;14.80;99.90;;;;;;5037323;28;20182;-67
2021/04/17 08:23:33;;;;;;;6.37;3.27;;;15.10;99.90;;;;;;5032558;28;20615;-66
2021/04/17 08:26:00;;;;;;;4.00;3.20;;;15.40;99.90;;;;;;5033384;28;20182;-66
2021/04/17 08:28:29;;;;;;;7.37;3.33;;;15.30;99.90;;;;;;5032429;28;20202;-65
2021/04/17 08:31:23;;;;;;;5.20;3.87;;;15.20;99.90;;;;;;5044227;28;20644;-66
2021/04/17 08:34:16;;;;;;;3.60;2.97;;;15.00;99.90;;;;;;5051938;28;20170;-65
2021/04/17 08:37:03;;;;;;;6.07;3.80;;;15.00;99.90;;;;;;5033246;28;20183;-66
2021/04/17 08:39:34;;;;;;;5.73;3.47;;;15.40;99.90;;;;;;5032177;28;20277;-66
2021/04/17 08:42:05;;;;;;;5.90;3.87;;;14.90;99.90;;;;;;5011774;28;20175;-66
2021/04/17 08:44:39;;;;;;;6.93;3.97;;;14.90;99.90;;;;;;5012377;28;20176;-66
2021/04/17 08:47:07;;;;;;;7.27;3.87;;;14.70;99.90;;;;;;5012093;28;20567;-66
2021/04/17 08:49:35;;;;;;;4.57;3.20;;;14.90;99.90;;;;;;5046672;28;20199;-65
2021/04/17 08:52:19;;;;;;;5.97;3.20;;;14.80;99.90;;;;;;5031331;28;20203;-65
2021/04/17 08:55:01;;;;;;;6.17;3.80;;;14.70;99.90;;;;;;5031991;28;20713;-65
2021/04/17 08:57:27;;;;;;;4.70;3.77;;;14.60;99.90;;;;;;5031881;28;20195;-64
2021/04/17 08:59:58;;;;;;;5.57;3.53;;;14.40;99.90;;;;;;5030486;28;20184;-66
2021/04/17 09:02:25;;;;;;;7.10;3.20;;;14.60;99.90;;;;;;5032036;28;20201;-67
2021/04/17 09:05:06;;;;;;;8.10;3.87;;;15.00;99.90;;;;;;5031547;28;20270;-66
2021/04/17 09:07:37;;;;;;;6.73;3.93;;;15.20;99.90;;;;;;5031865;28;20176;-66
2021/04/17 09:10:21;;;;;;;4.60;3.40;;;15.30;99.90;;;;;;5031410;28;20244;-66
2021/04/17 09:12:47;;;;;;;6.83;3.43;;;15.60;99.90;;;;;;5031563;28;20685;-65
2021/04/17 09:15:13;;;;;;;6.87;4.47;;;15.80;99.90;;;;;;5031768;28;20263;-66
2021/04/17 09:17:41;;;;;;;8.07;4.17;;;15.70;99.90;;;;;;5036779;28;20237;-66
2021/04/17 09:20:13;;;;;;;4.37;3.37;;;15.50;99.90;;;;;;5036250;28;20583;-64
2021/04/17 09:22:38;;;;;;;4.20;3.73;;;15.50;99.90;;;;;;5031354;28;20163;-65
2021/04/17 09:25:09;;;;;;;10.00;3.70;;;15.40;99.90;;;;;;5031370;28;20258;-65
2021/04/17 09:27:44;;;;;;;6.90;4.00;;;15.50;99.90;;;;;;5031463;28;20207;-65
2021/04/17 09:30:11;;;;;;;6.73;3.97;;;15.80;99.90;;;;;;5030988;28;20194;-64
2021/04/17 09:32:41;;;;;;;6.00;3.70;;;15.60;99.90;;;;;;5031371;28;20171;-65
2021/04/17 09:35:17;;;;;;;5.20;3.83;;;15.90;99.90;;;;;;5031327;28;20178;-65
2021/04/17 09:37:48;;;;;;;6.53;3.90;;;15.30;99.90;;;;;;5031316;28;20199;-64
2021/04/17 09:40:14;;;;;;;5.07;3.50;;;14.50;99.90;;;;;;5030933;28;20195;-65
2021/04/17 09:42:41;;;;;;;5.17;3.03;;;14.90;99.90;;;;;;5031643;28;20172;-66
2021/04/17 09:45:11;;;;;;;6.03;3.57;;;15.30;99.90;;;;;;5040165;28;20652;-64
2021/04/17 09:47:57;;;;;;;6.00;3.67;;;15.30;99.90;;;;;;5044635;28;20516;-65
2021/04/17 09:50:24;;;;;;;3.57;3.03;;;15.60;99.90;;;;;;5031003;28;20214;-65
2021/04/17 09:52:51;;;;;;;7.50;3.80;;;15.80;99.90;;;;;;5039572;28;20528;-66
2021/04/17 09:55:17;;;;;;;5.60;4.37;;;15.70;99.90;;;;;;5051080;28;20174;-65
2021/04/17 09:57:49;;;;;;;6.33;3.77;;;15.80;99.90;;;;;;5043832;28;20207;-66
2021/04/17 10:00:24;;;;;;;7.70;4.23;;;15.70;99.90;;;;;;5044691;28;20571;-66
2021/04/17 10:02:50;;;;;;;6.00;4.23;;;16.00;99.90;;;;;;5011411;28;20168;-64
2021/04/17 10:05:31;;;;;;;7.03;4.43;;;16.10;99.90;;;;;;4993737;28;20183;-65
2021/04/17 10:07:58;;;;;;;6.13;3.87;;;16.10;99.90;;;;;;5011075;28;20587;-65
2021/04/17 10:10:24;;;;;;;4.63;4.03;;;15.80;99.90;;;;;;5011087;28;20720;-65
2021/04/17 10:12:52;;;;;;;7.20;4.30;;;15.70;99.90;;;;;;5050524;28;20175;-64
2021/04/17 10:15:26;;;;;;;6.50;3.77;;;15.80;99.90;;;;;;5050957;28;20197;-65
2021/04/17 10:17:54;;;;;;;6.27;4.03;;;15.90;99.90;;;;;;5049147;28;20236;-65
2021/04/17 10:20:20;;;;;;;7.17;4.33;;;15.70;99.90;;;;;;5050372;28;20207;-65
2021/04/17 10:23:03;;;;;;;5.47;4.03;;;15.40;99.80;;;;;;5048042;28;20171;-65
2021/04/17 10:25:46;;;;;;;6.17;4.07;;;15.30;99.90;;;;;;5052151;28;20174;-65
2021/04/17 10:28:23;;;;;;;5.83;3.87;;;15.70;99.90;;;;;;5014591;28;20186;-65
2021/04/17 10:30:55;;;;;;;6.80;3.40;;;16.20;99.90;;;;;;5017003;28;20199;-65
2021/04/17 10:33:28;;;;;;;8.37;4.37;;;16.80;99.90;;;;;;5036414;28;20175;-64
2021/04/17 10:35:56;;;;;;;10.37;3.90;;;17.00;99.60;;;;;;5035219;28;20168;-65
2021/04/17 10:38:22;;;;;;;5.57;3.70;;;16.60;99.90;;;;;;5054696;28;20233;-65
2021/04/17 10:40:48;;;;;;;5.93;4.37;;;16.70;99.90;;;;;;5053655;28;20690;-65
2021/04/17 10:43:16;;;;;;;9.33;5.60;;;16.60;99.60;;;;;;5034296;28;20180;-65
2021/04/17 10:45:43;;;;;;;8.17;4.03;;;16.60;99.90;;;;;;5034378;28;20218;-65
2021/04/17 10:48:17;;;;;;;16.13;4.70;;;16.40;99.90;;;;;;5052023;28;20576;-65
2021/04/17 10:51:02;;;;;;;8.43;4.23;;;16.20;99.70;;;;;;5053886;28;20189;-65
2021/04/17 10:53:32;;;;;;;8.37;3.90;;;16.00;98.90;;;;;;5014633;28;20551;-65
2021/04/17 10:56:19;;;;;;;4.60;3.37;;;15.90;99.90;;;;;;5013762;28;20184;-66
2021/04/17 10:58:48;;;;;;;6.90;3.63;;;16.00;99.90;;;;;;5013304;28;20224;-64
2021/04/17 11:01:16;;;;;;;5.80;3.77;;;16.10;98.10;;;;;;5016458;28;20222;-65
2021/04/17 11:03:47;;;;;;;5.07;3.57;;;15.80;98.80;;;;;;5053934;28;20163;-65
2021/04/17 11:06:17;;;;;;;4.30;3.53;;;15.40;97.20;;;;;;5052753;28;20651;-65
2021/04/17 11:08:44;;;;;;;4.57;3.00;;;15.20;97.80;;;;;;5033892;28;20283;-64
2021/04/17 11:11:12;;;;;;;4.20;3.30;;;15.20;98.70;;;;;;5033225;28;20237;-65
2021/04/17 11:13:43;;;;;;;4.60;3.80;;;15.40;98.50;;;;;;5053572;28;20175;-65
2021/04/17 11:16:11;;;;;;;5.83;3.47;;;15.20;98.80;;;;;;5049411;28;20171;-65
2021/04/17 11:18:44;;;;;;;7.87;3.70;;;15.50;99.90;;;;;;5052450;28;20268;-65
2021/04/17 11:21:10;;;;;;;7.07;4.20;;;16.30;99.40;;;;;;5049658;28;20225;-65
2021/04/17 11:23:49;;;;;;;5.13;3.40;;;17.00;98.50;;;;;;5033677;28;20243;-66
2021/04/17 11:26:20;;;;;;;5.97;3.47;;;17.70;99.50;;;;;;5036354;28;20166;-65
2021/04/17 11:28:49;;;;;;;4.70;3.60;;;18.80;98.80;;;;;;5053486;28;20553;-65
2021/04/17 11:31:21;;;;;;;4.78;3.38;;;18.80;97.30;;;;;;5050054;28;20701;-65
2021/04/17 11:33:48;;;;;;;6.67;3.30;;;18.40;96.40;;;;;;5033406;28;20183;-64
2021/04/17 11:36:14;;;;;;;7.40;3.87;;;17.80;95.70;;;;;;5033898;28;20222;-65
2021/04/17 11:38:40;;;;;;;8.47;3.43;;;17.60;97.80;;;;;;5052834;28;20210;-65
2021/04/17 11:41:05;;;;;;;6.73;4.20;;;16.80;95.50;;;;;;5052488;28;20628;-65
2021/04/17 11:43:31;;;;;;;3.43;3.13;;;16.30;96.70;;;;;;5033216;28;20198;-65
2021/04/17 11:45:57;;;;;;;6.30;4.07;;;15.90;97.30;;;;;;5032845;28;20816;-64
2021/04/17 11:48:22;;;;;;;4.07;3.07;;;16.10;99.10;;;;;;5050879;28;20198;-64
2021/04/17 11:50:48;;;;;;;5.37;3.63;;;16.30;96.20;;;;;;5052702;28;20664;-65
2021/04/17 11:53:17;;;;;;;6.50;3.70;;;16.40;96.70;;;;;;5036390;28;20559;-64
2021/04/17 11:55:43;;;;;;;6.87;3.60;;;17.00;97.90;;;;;;5033075;28;20168;-64
2021/04/17 11:58:09;;;;;;;8.53;4.13;;;17.70;98.00;;;;;;5047010;28;20190;-64
2021/04/17 12:00:35;;;;;;;7.10;3.60;;;18.30;98.50;;;;;;5052578;28;20265;-66
2021/04/17 12:03:02;;;;;;;5.67;3.80;;;18.30;97.80;;;;;;5039193;28;20179;-64
2021/04/17 12:05:28;;;;;;;6.53;3.80;;;18.20;97.80;;;;;;5032822;28;20176;-65
2021/04/17 12:07:53;;;;;;;6.27;3.67;;;17.60;97.40;;;;;;5043750;28;20487;-64
2021/04/17 12:10:20;;;;;;;5.30;3.73;;;17.00;96.10;;;;;;5051925;28;20198;-64
2021/04/17 12:12:46;;;;;;;5.57;3.47;;;16.80;94.90;;;;;;5042729;28;20542;-64
2021/04/17 12:15:13;;;;;;;6.83;3.90;;;16.60;96.50;;;;;;5032324;28;20184;-65
2021/04/17 12:17:39;;;;;;;6.03;3.60;;;16.50;94.40;;;;;;5040139;28;20206;-65
2021/04/17 12:20:06;;;;;;;5.73;3.27;;;16.40;95.40;;;;;;5051550;28;20207;-64
2021/04/17 12:22:32;;;;;;;5.03;3.90;;;16.60;95.50;;;;;;5045442;28;20211;-64
2021/04/17 12:24:57;;;;;;;6.30;4.07;;;16.30;95.90;;;;;;5031887;28;20230;-65
2021/04/17 12:27:23;;;;;;;7.43;4.10;;;16.20;96.10;;;;;;5036400;28;20183;-65
2021/04/17 12:29:50;;;;;;;4.47;3.60;;;16.00;95.50;;;;;;5051923;28;20230;-64
2021/04/17 12:32:16;;;;;;;6.93;3.70;;;16.00;97.00;;;;;;5048962;28;20178;-65
2021/04/17 12:34:41;;;;;;;8.63;4.20;;;15.90;96.60;;;;;;5032337;28;20551;-64
2021/04/17 12:37:07;;;;;;;5.77;3.87;;;15.90;95.60;;;;;;5033003;28;20176;-65
2021/04/17 12:39:33;;;;;;;5.17;3.73;;;16.10;96.20;;;;;;5051981;28;20567;-65
2021/04/17 12:41:58;;;;;;;6.27;3.23;;;16.30;95.70;;;;;;5051416;28;20740;-64
2021/04/17 12:44:24;;;;;;;6.17;4.90;;;16.30;95.20;;;;;;5032825;28;20183;-65
2021/04/17 12:46:49;;;;;;;7.30;3.70;;;16.30;96.20;;;;;;5033140;28;20183;-65
2021/04/17 12:49:15;;;;;;;5.77;3.80;;;16.40;96.40;;;;;;5031614;28;20195;-65
2021/04/17 12:51:40;;;;;;;4.77;4.00;;;16.40;97.00;;;;;;5031974;28;20621;-64
2021/04/17 12:54:07;;;;;;;7.20;4.23;;;16.30;95.00;;;;;;5051837;28;20636;-64
2021/04/17 12:56:33;;;;;;;6.63;3.90;;;16.00;94.60;;;;;;5051877;28;20561;-64